createdAt,value
2016-11-30T11:29:39.986Z,91.42
2016-11-30T11:30:28.609Z,92.85
2016-11-30T11:32:57.466Z,93.89
2016-11-30T11:33:40.626Z,93.79
2016-11-30T11:34:30.433Z,93.75
2016-11-30T11:35:15.209Z,95.08
2016-11-30T11:35:56.433Z,95.55
2016-11-30T11:36:36.933Z,96.41
2016-11-30T11:37:17.424Z,96.98
2016-11-30T11:37:57.935Z,97.74
2016-11-30T11:38:38.544Z,98.88
2016-11-30T11:39:19.019Z,98.88
2016-11-30T11:39:59.534Z,98.64
2016-11-30T11:40:40.061Z,99.49
2016-11-30T11:41:20.514Z,99.49
2016-11-30T11:42:01.016Z,99.49
2016-11-30T11:42:41.507Z,99.97
2016-11-30T11:43:22.026Z,99.99
2016-11-30T11:44:02.641Z,99.99
2016-11-30T11:44:43.089Z,99.99
2016-11-30T11:45:23.593Z,99.99
2016-11-30T11:46:04.058Z,99.99
2016-11-30T11:46:44.508Z,99.99
2016-11-30T11:47:24.993Z,99.99
2016-11-30T11:48:05.487Z,99.99
2016-11-30T11:48:46.001Z,99.99
2016-11-30T11:49:26.466Z,99.99
2016-11-30T11:50:07.021Z,99.99
2016-11-30T11:50:47.625Z,99.99
2016-11-30T11:51:28.004Z,99.99
2016-11-30T11:52:08.468Z,99.99
2016-11-30T11:52:48.966Z,99.99
2016-11-30T11:53:29.456Z,99.99
2016-11-30T11:54:13.499Z,99.99
2016-11-30T11:54:54.460Z,99.99
2016-11-30T11:55:34.594Z,99.99
2016-11-30T11:56:15.085Z,99.99
2016-11-30T11:56:55.645Z,99.99
2016-11-30T11:57:36.114Z,99.99
2016-11-30T11:58:16.600Z,99.99
2016-11-30T11:58:57.121Z,99.99
2016-11-30T11:59:39.871Z,99.99
2016-11-30T12:00:21.637Z,99.99
2016-11-30T12:01:02.190Z,99.99
2016-11-30T12:01:42.703Z,99.99
2016-11-30T12:02:23.214Z,99.99
2016-11-30T12:03:03.690Z,99.99
2016-11-30T12:03:44.760Z,99.99
2016-11-30T12:04:25.262Z,99.99
2016-11-30T12:05:05.758Z,99.99
2016-11-30T12:05:46.227Z,99.99
2016-11-30T12:07:54.867Z,99.99
2016-11-30T12:08:35.460Z,99.99
2016-11-30T12:09:16.005Z,99.99
2016-11-30T12:09:56.486Z,99.99
2016-11-30T12:10:36.982Z,99.99
2016-11-30T12:11:17.502Z,99.99
2016-11-30T12:11:57.976Z,99.99
2016-11-30T12:12:38.474Z,99.99
2016-11-30T12:13:18.955Z,99.99
2016-11-30T12:13:59.427Z,99.99
2016-11-30T12:14:39.914Z,99.99
2016-11-30T12:15:20.416Z,99.99
2016-11-30T12:16:00.928Z,99.99
2016-11-30T12:16:41.407Z,99.99
2016-11-30T12:17:21.934Z,99.99
2016-11-30T12:18:02.491Z,99.99
2016-11-30T12:18:42.984Z,99.99
2016-11-30T12:19:23.495Z,99.99
2016-11-30T12:20:04.046Z,99.99
2016-11-30T12:20:44.807Z,99.99
2016-11-30T12:21:25.581Z,99.99
2016-11-30T12:22:06.957Z,99.99
2016-11-30T12:22:47.720Z,99.99
2016-11-30T12:23:28.807Z,99.99
2016-11-30T12:24:09.565Z,99.99
2016-11-30T12:24:54.779Z,99.99
2016-11-30T12:25:37.730Z,99.99
2016-11-30T12:26:23.300Z,99.99
2016-11-30T12:27:08.290Z,99.99
2016-11-30T12:27:52.318Z,99.99
2016-11-30T12:28:38.331Z,99.99
2016-11-30T12:29:22.566Z,99.99
2016-11-30T12:30:07.307Z,99.99
2016-11-30T12:30:51.303Z,99.99
2016-11-30T12:31:36.276Z,99.99
2016-11-30T12:32:18.177Z,99.99
2016-11-30T12:32:58.904Z,99.97
2016-11-30T12:33:40.460Z,99.99
2016-11-30T12:34:20.932Z,99.68
2016-11-30T12:35:02.209Z,99.77
2016-11-30T12:35:43.981Z,99.3
2016-11-30T12:36:27.603Z,99.58
2016-11-30T12:37:08.174Z,99.21
2016-11-30T12:37:55.131Z,99.49
2016-11-30T12:38:35.611Z,99.02
2016-11-30T12:40:53.972Z,97.6
2016-11-30T12:41:34.438Z,97.69
2016-11-30T12:42:15.637Z,98.26
2016-11-30T12:42:56.240Z,98.83
2016-11-30T12:43:37.188Z,98.83
2016-11-30T12:44:17.706Z,98.54
2016-11-30T12:44:58.286Z,98.92
2016-11-30T12:45:39.694Z,98.35
2016-11-30T12:46:20.167Z,98.16
2016-11-30T12:47:00.682Z,98.54
2016-11-30T12:47:41.172Z,98.73
2016-11-30T12:48:21.678Z,98.45
2016-11-30T12:49:02.203Z,98.07
2016-11-30T12:49:42.733Z,97.97
2016-11-30T12:50:24.224Z,97.69
2016-11-30T12:51:04.736Z,97.78
2016-11-30T12:51:45.227Z,97.88
2016-11-30T12:52:25.741Z,98.16
2016-11-30T12:53:06.468Z,98.35
2016-11-30T12:53:46.952Z,98.64
2016-11-30T12:54:27.443Z,98.35
2016-11-30T12:55:07.936Z,98.26
2016-11-30T12:55:48.552Z,97.97
2016-11-30T12:56:29.856Z,98.16
2016-11-30T12:57:11.196Z,98.26
2016-11-30T12:57:53.126Z,98.07
2016-11-30T12:58:33.610Z,97.97
2016-11-30T13:00:51.891Z,98.16
2016-11-30T13:01:32.380Z,98.35
2016-11-30T13:02:12.893Z,97.78
2016-11-30T13:02:53.470Z,98.73
2016-11-30T13:03:33.979Z,98.83
2016-11-30T13:04:20.207Z,98.64
2016-11-30T13:05:01.748Z,99.02
2016-11-30T13:05:42.237Z,98.73
2016-11-30T13:06:22.713Z,98.73
2016-11-30T13:07:03.198Z,98.64
2016-11-30T13:07:43.728Z,99.21
2016-11-30T13:08:25.209Z,99.21
2016-11-30T13:09:05.739Z,99.11
2016-11-30T13:09:46.226Z,99.97
2016-11-30T13:10:28.375Z,99.99
2016-11-30T13:11:10.328Z,99.99
2016-11-30T13:11:53.123Z,99.87
2016-11-30T13:12:33.640Z,99.77
2016-11-30T13:13:14.125Z,99.58
2016-11-30T13:13:55.626Z,99.77
2016-11-30T13:14:36.120Z,99.99
2016-11-30T13:15:16.628Z,99.99
2016-11-30T13:15:57.154Z,99.99
2016-11-30T13:16:37.646Z,99.87
2016-11-30T13:17:18.136Z,99.99
2016-11-30T13:17:58.689Z,99.97
2016-11-30T13:18:39.189Z,99.3
2016-11-30T13:19:20.574Z,99.21
2016-11-30T13:20:01.104Z,99.21
2016-11-30T13:20:41.605Z,99.4
2016-11-30T13:21:22.111Z,99.58
2016-11-30T13:22:02.640Z,99.21
2016-11-30T13:22:43.208Z,99.4
2016-11-30T13:23:23.980Z,99.49
2016-11-30T13:24:05.448Z,99.4
2016-11-30T13:24:45.934Z,99.3
2016-11-30T13:25:26.445Z,99.58
2016-11-30T13:26:07.079Z,99.4
2016-11-30T13:26:47.593Z,99.49
2016-11-30T13:27:28.096Z,99.21
2016-11-30T13:28:08.620Z,98.83
2016-11-30T13:30:27.882Z,99.21
2016-11-30T13:31:08.336Z,99.21
2016-11-30T13:31:48.882Z,99.21
2016-11-30T13:32:29.406Z,98.92
2016-11-30T13:33:09.925Z,99.21
2016-11-30T13:33:58.568Z,98.54
2016-11-30T13:34:44.617Z,99.21
2016-11-30T13:35:25.959Z,98.64
2016-11-30T13:36:13.185Z,98.54
2016-11-30T13:36:56.715Z,98.73
2016-11-30T13:37:37.285Z,98.73
2016-11-30T13:38:17.779Z,98.35
2016-11-30T13:38:58.277Z,98.54
2016-11-30T13:39:38.818Z,98.64
2016-11-30T13:40:19.308Z,99.21
2016-11-30T13:40:59.774Z,98.83
2016-11-30T13:41:40.250Z,99.21
2016-11-30T13:42:20.741Z,99.11
2016-11-30T13:43:01.325Z,99.21
2016-11-30T13:43:41.793Z,99.3
2016-11-30T13:44:22.355Z,99.21
2016-11-30T13:45:02.802Z,99.49
2016-11-30T13:45:43.248Z,99.3
2016-11-30T13:46:23.827Z,99.49
2016-11-30T13:47:04.336Z,99.4
2016-11-30T13:47:44.816Z,99.4
2016-11-30T13:48:25.321Z,99.4
2016-11-30T13:49:05.792Z,99.4
2016-11-30T13:49:46.520Z,99.68
2016-11-30T13:50:27.240Z,99.3
2016-11-30T13:51:07.746Z,99.3
2016-11-30T13:51:48.260Z,99.49
2016-11-30T13:52:28.748Z,99.58
2016-11-30T13:53:09.282Z,99.21
2016-11-30T13:53:49.782Z,99.4
2016-11-30T13:54:30.615Z,99.21
2016-11-30T13:55:11.166Z,99.77
2016-11-30T13:55:51.592Z,99.97
2016-11-30T13:56:32.079Z,99.97
2016-11-30T13:57:12.549Z,99.97
2016-11-30T13:57:53.097Z,99.77
2016-11-30T13:58:33.547Z,99.68
2016-11-30T13:59:14.045Z,99.99
2016-11-30T13:59:54.560Z,99.97
2016-11-30T14:00:35.790Z,99.99
2016-11-30T14:01:17.050Z,99.99
2016-11-30T14:01:56.918Z,99.99
2016-11-30T14:02:38.207Z,99.99
2016-11-30T14:03:18.882Z,99.99
2016-11-30T14:03:59.639Z,99.77
2016-11-30T14:04:40.200Z,99.77
2016-11-30T14:05:20.891Z,99.21
2016-11-30T14:06:01.501Z,99.3
2016-11-30T14:06:41.988Z,99.49
2016-11-30T14:07:22.454Z,99.11
2016-11-30T14:08:02.951Z,98.73
2016-11-30T14:08:43.442Z,98.64
2016-11-30T14:09:23.982Z,98.64
2016-11-30T14:10:04.432Z,98.54
2016-11-30T14:10:44.975Z,98.54
2016-11-30T14:11:26.036Z,98.73
2016-11-30T14:12:06.403Z,98.64
2016-11-30T14:12:46.956Z,98.45
2016-11-30T14:13:27.454Z,98.45
2016-11-30T14:14:07.943Z,98.54
2016-11-30T14:14:48.417Z,98.92
2016-11-30T14:15:28.970Z,99.11
2016-11-30T14:16:09.460Z,98.92
2016-11-30T14:16:49.956Z,98.64
2016-11-30T14:17:30.440Z,98.54
2016-11-30T14:18:10.930Z,98.83
2016-11-30T14:18:51.480Z,99.21
2016-11-30T14:19:31.986Z,98.92
2016-11-30T14:20:12.443Z,99.02
2016-11-30T14:20:52.945Z,98.73
2016-11-30T14:21:33.444Z,98.73
2016-11-30T14:22:13.915Z,98.83
2016-11-30T14:22:54.516Z,98.45
2016-11-30T14:23:35.013Z,98.45
2016-11-30T14:24:15.496Z,98.73
2016-11-30T14:24:55.994Z,98.45
2016-11-30T14:25:36.452Z,98.45
2016-11-30T14:26:16.962Z,98.92
2016-11-30T14:26:57.462Z,98.35
2016-11-30T14:27:38.059Z,98.64
2016-11-30T14:28:18.650Z,98.83
2016-11-30T14:28:59.135Z,98.92
2016-11-30T14:29:39.629Z,98.54
2016-11-30T14:30:20.145Z,98.83
2016-11-30T14:31:00.610Z,98.92
2016-11-30T14:31:41.149Z,98.83
2016-11-30T14:32:21.592Z,98.54
2016-11-30T14:33:02.149Z,98.92
2016-11-30T14:33:48.023Z,98.73
2016-11-30T14:34:33.122Z,99.21
2016-11-30T14:35:13.231Z,99.02
2016-11-30T14:35:53.740Z,99.49
2016-11-30T14:36:34.163Z,99.58
2016-11-30T14:37:14.666Z,99.11
2016-11-30T14:37:55.145Z,99.68
2016-11-30T14:38:35.630Z,99.99
2016-11-30T14:39:16.717Z,99.97
2016-11-30T14:39:57.256Z,99.99
2016-11-30T14:40:37.717Z,99.97
2016-11-30T14:41:18.237Z,99.77
2016-11-30T14:41:58.774Z,99.87
2016-11-30T14:42:39.283Z,99.77
2016-11-30T14:43:19.774Z,99.87
2016-11-30T14:44:00.334Z,99.97
2016-11-30T14:44:41.005Z,99.99
2016-11-30T14:45:21.464Z,99.87
2016-11-30T14:46:01.942Z,99.97
2016-11-30T14:46:42.437Z,99.77
2016-11-30T14:47:22.936Z,99.58
2016-11-30T14:48:03.644Z,99.68
2016-11-30T14:48:44.165Z,99.87
2016-11-30T14:49:24.650Z,99.99
2016-11-30T14:50:05.193Z,99.97
2016-11-30T14:50:45.698Z,99.87
2016-11-30T14:51:26.734Z,99.99
2016-11-30T14:52:06.935Z,99.99
2016-11-30T14:52:47.441Z,99.97
2016-11-30T14:53:27.942Z,99.97
2016-11-30T14:54:08.435Z,99.99
2016-11-30T14:54:48.959Z,99.99
2016-11-30T14:55:31.563Z,99.97
2016-11-30T14:56:12.010Z,99.99
2016-11-30T14:56:52.474Z,99.99
2016-11-30T14:57:32.955Z,99.68
2016-11-30T14:58:14.003Z,99.68
2016-11-30T14:58:54.687Z,99.99
2016-11-30T14:59:35.170Z,99.97
2016-11-30T15:00:15.656Z,99.99
2016-11-30T15:00:56.119Z,99.77
2016-11-30T15:01:36.636Z,99.68
2016-11-30T15:02:17.119Z,99.97
2016-11-30T15:02:58.131Z,99.68
2016-11-30T15:03:38.609Z,99.87
2016-11-30T15:04:19.109Z,99.99
2016-11-30T15:04:59.578Z,99.99
2016-11-30T15:05:41.119Z,99.99
2016-11-30T15:06:21.593Z,99.99
2016-11-30T15:07:03.201Z,99.99
2016-11-30T15:07:43.757Z,99.99
2016-11-30T15:08:25.763Z,99.99
2016-11-30T15:09:06.898Z,99.99
2016-11-30T15:09:47.410Z,99.99
2016-11-30T15:10:27.911Z,99.99
2016-11-30T15:11:11.710Z,99.99
2016-11-30T15:11:52.257Z,99.99
2016-11-30T15:12:35.295Z,99.97
2016-11-30T15:13:19.323Z,99.99
2016-11-30T15:13:59.800Z,99.99
2016-11-30T15:14:40.273Z,99.99
2016-11-30T15:15:20.776Z,99.97
2016-11-30T15:16:01.297Z,99.97
2016-11-30T15:16:41.758Z,99.99
2016-11-30T15:17:22.306Z,99.99
2016-11-30T15:18:02.784Z,99.99
2016-11-30T15:18:43.248Z,99.99
2016-11-30T15:19:23.752Z,99.99
2016-11-30T15:20:04.254Z,99.99
2016-11-30T15:20:44.747Z,99.99
2016-11-30T15:21:25.239Z,99.99
2016-11-30T15:22:05.769Z,99.99
2016-11-30T15:22:46.269Z,99.99
2016-11-30T15:23:26.715Z,99.99
2016-11-30T15:24:07.207Z,99.99
2016-11-30T15:24:47.663Z,99.99
2016-11-30T15:25:28.154Z,99.99
2016-11-30T15:26:08.620Z,99.99
2016-11-30T15:26:49.099Z,99.99
2016-11-30T15:27:29.621Z,99.99
2016-11-30T15:28:10.096Z,99.99
2016-11-30T15:28:50.604Z,99.99
2016-11-30T15:29:31.080Z,99.99
2016-11-30T15:30:11.554Z,99.99
2016-11-30T15:30:52.032Z,99.99
2016-11-30T15:31:32.500Z,99.99
2016-11-30T15:32:13.025Z,99.99
2016-11-30T15:32:53.502Z,99.99
2016-11-30T15:33:34.006Z,99.99
2016-11-30T15:34:14.539Z,99.99
2016-11-30T15:34:55.063Z,99.99
2016-11-30T15:35:35.549Z,99.99
2016-11-30T15:36:16.035Z,99.99
2016-11-30T15:36:56.587Z,99.99
2016-11-30T15:37:37.036Z,99.99
2016-11-30T15:38:17.516Z,99.99
2016-11-30T15:38:57.989Z,99.99
2016-11-30T15:39:38.746Z,99.99
2016-11-30T15:40:19.283Z,99.99
2016-11-30T15:40:59.782Z,99.99
2016-11-30T15:41:40.260Z,99.99
2016-11-30T15:42:20.802Z,99.99
2016-11-30T15:43:02.089Z,99.99
2016-11-30T15:43:42.585Z,99.99
2016-11-30T15:44:23.144Z,99.99
2016-11-30T15:45:03.593Z,99.99
2016-11-30T15:45:44.126Z,99.99
2016-11-30T15:46:24.601Z,99.99
2016-11-30T15:47:05.107Z,99.99
2016-11-30T15:47:45.633Z,99.99
2016-11-30T15:48:26.228Z,99.99
2016-11-30T15:49:06.835Z,99.99
2016-11-30T15:49:47.438Z,99.99
2016-11-30T15:50:28.069Z,99.99
2016-11-30T15:51:08.614Z,99.99
2016-11-30T15:51:49.133Z,99.99
2016-11-30T15:52:29.658Z,99.99
2016-11-30T15:53:10.275Z,99.99
2016-11-30T15:53:50.713Z,99.99
2016-11-30T15:54:31.192Z,99.99
2016-11-30T15:55:11.701Z,99.99
2016-11-30T15:55:52.202Z,99.99
2016-11-30T15:56:32.657Z,99.99
2016-11-30T15:57:13.158Z,99.99
2016-11-30T15:57:53.711Z,99.99
2016-11-30T15:58:34.156Z,99.99
2016-11-30T15:59:14.690Z,99.99
2016-11-30T15:59:55.137Z,99.99
2016-11-30T16:00:35.623Z,99.99
2016-11-30T16:01:16.141Z,99.99
2016-11-30T16:01:56.634Z,99.99
2016-11-30T16:02:37.146Z,99.99
2016-11-30T16:03:17.605Z,99.99
2016-11-30T16:03:58.130Z,99.99
2016-11-30T16:04:38.537Z,99.99
2016-11-30T16:05:19.028Z,99.99
2016-11-30T16:05:59.490Z,99.99
2016-11-30T16:06:40.018Z,99.99
2016-11-30T16:07:20.509Z,99.99
2016-11-30T16:08:01.132Z,99.99
2016-11-30T16:08:41.738Z,99.99
2016-11-30T16:09:22.199Z,99.99
2016-11-30T16:10:02.722Z,99.99
2016-11-30T16:10:43.206Z,99.99
2016-11-30T16:11:23.689Z,99.99
2016-11-30T16:12:04.172Z,99.99
2016-11-30T16:12:44.659Z,99.99
2016-11-30T16:13:25.132Z,99.99
2016-11-30T16:14:05.660Z,99.99
2016-11-30T16:14:50.825Z,99.99
2016-11-30T16:15:40.217Z,99.99
2016-11-30T16:16:29.683Z,99.99
2016-11-30T16:17:13.358Z,99.99
2016-11-30T16:17:53.864Z,99.99
2016-11-30T16:18:34.357Z,99.99
2016-11-30T16:19:14.855Z,99.99
2016-11-30T16:19:55.360Z,99.99
2016-11-30T16:20:35.840Z,99.99
2016-11-30T16:21:16.342Z,99.99
2016-11-30T16:22:02.290Z,99.99
2016-11-30T16:22:52.525Z,99.99
2016-11-30T16:23:43.156Z,99.99
2016-11-30T16:24:34.957Z,99.99
2016-11-30T16:25:26.971Z,99.99
2016-11-30T16:27:51.562Z,99.99
2016-11-30T16:28:41.611Z,99.99
2016-11-30T16:29:27.321Z,99.99
2016-11-30T16:30:17.159Z,99.99
2016-11-30T16:31:06.027Z,99.99
2016-11-30T16:31:48.733Z,99.99
2016-11-30T16:32:29.265Z,99.99
2016-11-30T16:33:09.756Z,99.99
2016-11-30T16:33:50.249Z,99.99
2016-11-30T16:34:30.846Z,99.99
2016-11-30T16:35:11.461Z,99.99
2016-11-30T16:35:51.912Z,99.99
2016-11-30T16:36:32.406Z,99.99
2016-11-30T16:37:12.923Z,99.99
2016-11-30T16:37:53.437Z,99.99
2016-11-30T16:38:33.854Z,99.99
2016-11-30T16:39:14.381Z,99.99
2016-11-30T16:39:54.861Z,99.99
2016-11-30T16:40:35.346Z,99.77
2016-11-30T16:41:15.887Z,99.99
2016-11-30T16:41:56.394Z,99.68
2016-11-30T16:42:36.874Z,99.87
2016-11-30T16:43:17.391Z,99.77
2016-11-30T16:43:57.960Z,99.3
2016-11-30T16:44:38.858Z,99.21
2016-11-30T16:45:20.633Z,99.3
2016-11-30T16:46:01.479Z,99.4
2016-11-30T16:46:42.301Z,99.02
2016-11-30T16:47:22.839Z,99.58
2016-11-30T16:48:03.361Z,99.21
2016-11-30T16:48:43.868Z,99.21
2016-11-30T16:49:24.414Z,99.21
2016-11-30T16:50:07.880Z,99.68
2016-11-30T16:50:51.064Z,99.3
2016-11-30T16:51:31.604Z,99.21
2016-11-30T16:52:13.965Z,99.4
2016-11-30T16:52:57.581Z,99.4
2016-11-30T16:53:40.384Z,99.58
2016-11-30T16:54:22.630Z,99.49
2016-11-30T16:55:06.600Z,99.4
2016-11-30T16:55:58.654Z,99.4
2016-11-30T16:56:39.890Z,99.58
2016-11-30T16:57:20.373Z,99.68
2016-11-30T16:58:05.416Z,99.58
2016-11-30T16:58:47.455Z,99.49
2016-11-30T16:59:28.108Z,99.4
2016-11-30T17:00:08.541Z,99.21
2016-11-30T17:00:49.046Z,99.58
2016-11-30T17:01:29.521Z,99.3
2016-11-30T17:02:09.993Z,99.3
2016-11-30T17:02:53.024Z,99.68
2016-11-30T17:03:33.531Z,99.02
2016-11-30T17:04:14.768Z,98.83
2016-11-30T17:04:55.231Z,98.73
2016-11-30T17:05:35.735Z,98.73
2016-11-30T17:06:16.424Z,98.64
2016-11-30T17:06:56.881Z,98.73
2016-11-30T17:07:37.551Z,99.11
2016-11-30T17:08:19.512Z,98.92
2016-11-30T17:09:00.000Z,98.83
2016-11-30T17:09:40.476Z,99.21
2016-11-30T17:10:20.974Z,98.83
2016-11-30T17:11:01.487Z,99.02
2016-11-30T17:11:41.941Z,99.21
2016-11-30T17:12:23.090Z,99.58
2016-11-30T17:13:04.176Z,99.3
2016-11-30T17:13:44.637Z,98.83
2016-11-30T17:14:25.675Z,99.02
2016-11-30T17:15:11.031Z,99.21
2016-11-30T17:15:56.903Z,99.58
2016-11-30T17:16:39.414Z,99.58
2016-11-30T17:17:20.378Z,99.49
2016-11-30T17:18:03.206Z,99.58
2016-11-30T17:18:45.953Z,98.73
2016-11-30T17:19:30.126Z,99.4
2016-11-30T17:20:14.486Z,99.49
2016-11-30T17:20:55.516Z,99.4
2016-11-30T17:21:37.656Z,99.58
2016-11-30T17:22:18.153Z,99.68
2016-11-30T17:22:58.612Z,99.49
2016-11-30T17:23:39.168Z,99.3
2016-11-30T17:24:19.659Z,99.4
2016-11-30T17:25:00.185Z,99.4
2016-11-30T17:25:40.647Z,99.21
2016-11-30T17:26:21.125Z,99.58
2016-11-30T17:27:01.870Z,99.21
2016-11-30T17:27:42.435Z,99.4
2016-11-30T17:28:22.930Z,99.97
2016-11-30T17:29:03.606Z,99.87
2016-11-30T17:29:44.093Z,99.99
2016-11-30T17:30:24.594Z,99.99
2016-11-30T17:31:05.088Z,99.97
2016-11-30T17:31:45.599Z,99.99
2016-11-30T17:32:26.093Z,99.87
2016-11-30T17:33:06.580Z,99.99
2016-11-30T17:33:47.132Z,99.99
2016-11-30T17:34:27.599Z,99.99
2016-11-30T17:35:08.042Z,99.99
2016-11-30T17:35:48.555Z,99.99
2016-11-30T17:36:29.030Z,99.99
2016-11-30T17:37:09.500Z,99.99
2016-11-30T17:37:49.997Z,99.99
2016-11-30T17:38:30.460Z,99.99
2016-11-30T17:39:10.953Z,99.99
2016-11-30T17:39:51.464Z,99.99
2016-11-30T17:40:31.954Z,99.99
2016-11-30T17:41:12.425Z,99.97
2016-11-30T17:41:52.924Z,99.77
2016-11-30T17:42:33.429Z,99.21
2016-11-30T17:43:13.941Z,99.3
2016-11-30T17:43:54.480Z,99.21
2016-11-30T17:44:34.925Z,99.68
2016-11-30T17:45:15.442Z,98.73
2016-11-30T17:45:55.941Z,99.3
2016-11-30T17:46:36.439Z,98.45
2016-11-30T17:47:16.937Z,98.73
2016-11-30T17:47:57.400Z,98.73
2016-11-30T17:48:37.873Z,99.02
2016-11-30T17:49:18.374Z,99.21
2016-11-30T17:49:58.815Z,99.21
2016-11-30T17:50:39.299Z,98.92
2016-11-30T17:51:19.833Z,98.92
2016-11-30T17:52:00.313Z,99.11
2016-11-30T17:52:40.993Z,98.73
2016-11-30T17:53:21.951Z,98.45
2016-11-30T17:54:05.396Z,98.69
2016-11-30T17:54:50.935Z,98.54
2016-11-30T17:55:37.235Z,98.54
2016-11-30T17:56:19.110Z,98.26
2016-11-30T17:57:02.513Z,98.31
2016-11-30T17:57:43.040Z,98.21
2016-11-30T17:58:24.371Z,97.83
2016-11-30T17:59:08.604Z,97.92
2016-11-30T17:59:55.061Z,98.4
2016-11-30T18:00:39.754Z,98.21
2016-11-30T18:01:20.254Z,98.4
2016-11-30T18:02:00.737Z,97.92
2016-11-30T18:02:41.215Z,98.02
2016-11-30T18:03:21.702Z,98.02
2016-11-30T18:04:02.196Z,97.83
2016-11-30T18:04:42.673Z,98.02
2016-11-30T18:05:23.300Z,98.02
2016-11-30T18:06:03.767Z,97.74
2016-11-30T18:06:44.234Z,97.55
2016-11-30T18:07:24.777Z,97.55
2016-11-30T18:08:05.259Z,97.55
2016-11-30T18:08:45.691Z,97.55
2016-11-30T18:09:26.216Z,97.55
2016-11-30T18:10:06.693Z,97.74
2016-11-30T18:10:47.184Z,98.02
2016-11-30T18:11:27.689Z,97.74
2016-11-30T18:12:08.245Z,97.45
2016-11-30T18:12:48.728Z,97.74
2016-11-30T18:13:29.184Z,97.55
2016-11-30T18:14:09.683Z,97.64
2016-11-30T18:14:50.178Z,96.88
2016-11-30T18:15:30.656Z,97.64
2016-11-30T18:16:11.222Z,97.83
2016-11-30T18:16:51.775Z,97.55
2016-11-30T18:17:32.236Z,97.36
2016-11-30T18:18:12.763Z,97.45
2016-11-30T18:18:53.242Z,97.27
2016-11-30T18:19:33.741Z,97.45
2016-11-30T18:20:14.203Z,97.74
2016-11-30T18:20:54.686Z,97.36
2016-11-30T18:21:35.196Z,97.45
2016-11-30T18:22:15.668Z,97.45
2016-11-30T18:22:56.146Z,97.74
2016-11-30T18:23:36.658Z,97.74
2016-11-30T18:24:17.139Z,97.55
2016-11-30T18:24:57.618Z,97.55
2016-11-30T18:25:38.109Z,97.92
2016-11-30T18:26:18.622Z,98.02
2016-11-30T18:26:59.124Z,97.92
2016-11-30T18:27:39.589Z,98.31
2016-11-30T18:28:20.110Z,98.4
2016-11-30T18:29:00.608Z,98.31
2016-11-30T18:29:41.088Z,98.31
2016-11-30T18:30:21.571Z,98.12
2016-11-30T18:31:02.026Z,97.92
2016-11-30T18:31:42.524Z,98.31
2016-11-30T18:32:23.034Z,98.02
2016-11-30T18:33:03.532Z,98.4
2016-11-30T18:33:44.037Z,98.12
2016-11-30T18:34:24.542Z,98.02
2016-11-30T18:35:05.019Z,97.83
2016-11-30T18:35:45.553Z,98.4
2016-11-30T18:37:58.825Z,98.59
2016-11-30T18:40:13.155Z,98.21
2016-11-30T18:40:53.614Z,97.92
2016-11-30T18:41:34.117Z,98.12
2016-11-30T18:42:14.619Z,97.92
2016-11-30T18:42:55.100Z,98.31
2016-11-30T18:43:35.590Z,98.31
2016-11-30T18:44:16.093Z,98.31
2016-11-30T18:44:56.553Z,98.02
2016-11-30T18:45:37.046Z,97.92
2016-11-30T18:46:17.567Z,97.92
2016-11-30T18:46:58.078Z,98.4
2016-11-30T18:47:38.560Z,98.02
2016-11-30T18:48:19.098Z,98.31
2016-11-30T18:48:59.565Z,98.31
2016-11-30T18:49:40.042Z,97.64
2016-11-30T18:50:20.545Z,98.02
2016-11-30T18:51:01.051Z,98.02
2016-11-30T18:51:41.540Z,98.02
2016-11-30T18:52:21.990Z,98.12
2016-11-30T18:53:02.480Z,98.02
2016-11-30T18:53:42.955Z,97.83
2016-11-30T18:54:23.467Z,98.02
2016-11-30T18:55:04.011Z,97.74
2016-11-30T18:55:44.457Z,97.55
2016-11-30T18:56:24.952Z,97.64
2016-11-30T18:57:05.452Z,97.55
2016-11-30T18:57:45.911Z,97.45
2016-11-30T18:58:26.400Z,97.55
2016-11-30T18:59:06.908Z,97.55
2016-11-30T18:59:47.404Z,97.55
2016-11-30T19:00:27.938Z,97.45
2016-11-30T19:01:08.463Z,97.45
2016-11-30T19:01:48.935Z,97.55
2016-11-30T19:02:29.431Z,97.55
2016-11-30T19:03:09.920Z,97.74
2016-11-30T19:03:50.397Z,97.45
2016-11-30T19:04:30.900Z,97.74
2016-11-30T19:05:11.402Z,97.74
2016-11-30T19:05:51.902Z,97.83
2016-11-30T19:06:32.418Z,97.83
2016-11-30T19:07:12.936Z,97.74
2016-11-30T19:07:53.428Z,97.64
2016-11-30T19:08:33.933Z,97.64
2016-11-30T19:09:14.444Z,97.83
2016-11-30T19:09:54.945Z,97.83
2016-11-30T19:10:35.443Z,97.64
2016-11-30T19:11:15.931Z,97.27
2016-11-30T19:11:56.411Z,97.64
2016-11-30T19:12:36.905Z,97.55
2016-11-30T19:13:17.391Z,97.64
2016-11-30T19:13:57.915Z,97.64
2016-11-30T19:14:38.436Z,97.36
2016-11-30T19:15:18.904Z,97.45
2016-11-30T19:15:59.399Z,97.27
2016-11-30T19:16:39.886Z,97.36
2016-11-30T19:17:20.394Z,98.02
2016-11-30T19:18:00.903Z,97.55
2016-11-30T19:18:41.394Z,97.36
2016-11-30T19:19:21.868Z,97.36
2016-11-30T19:20:02.396Z,97.55
2016-11-30T19:20:42.865Z,97.83
2016-11-30T19:21:23.390Z,97.83
2016-11-30T19:22:03.870Z,97.64
2016-11-30T19:22:44.397Z,97.64
2016-11-30T19:23:24.868Z,97.45
2016-11-30T19:24:05.340Z,97.45
2016-11-30T19:24:45.850Z,97.45
2016-11-30T19:25:26.357Z,97.55
2016-11-30T19:26:06.858Z,97.55
2016-11-30T19:26:47.363Z,97.45
2016-11-30T19:27:27.862Z,97.92
2016-11-30T19:28:08.375Z,98.12
2016-11-30T19:28:48.849Z,97.92
2016-11-30T19:29:29.365Z,98.4
2016-11-30T19:30:09.860Z,98.02
2016-11-30T19:30:50.375Z,98.4
2016-11-30T19:31:30.866Z,98.02
2016-11-30T19:32:11.368Z,98.02
2016-11-30T19:32:51.844Z,98.02
2016-11-30T19:33:32.360Z,97.83
2016-11-30T19:34:12.868Z,98.21
2016-11-30T19:34:53.352Z,98.4
2016-11-30T19:35:33.850Z,98.12
2016-11-30T19:36:14.331Z,98.02
2016-11-30T19:36:54.837Z,97.92
2016-11-30T19:37:35.335Z,98.02
2016-11-30T19:38:15.850Z,97.92
2016-11-30T19:38:56.349Z,97.74
2016-11-30T19:39:36.823Z,97.64
2016-11-30T19:40:17.280Z,97.74
2016-11-30T19:40:57.782Z,97.83
2016-11-30T19:41:38.302Z,97.74
2016-11-30T19:42:18.819Z,97.74
2016-11-30T19:42:59.329Z,97.74
2016-11-30T19:43:39.810Z,98.12
2016-11-30T19:44:20.302Z,97.83
2016-11-30T19:45:00.795Z,98.02
2016-11-30T19:45:41.305Z,98.02
2016-11-30T19:46:21.763Z,97.83
2016-11-30T19:47:02.260Z,98.02
2016-11-30T19:47:42.753Z,97.83
2016-11-30T19:48:23.263Z,97.83
2016-11-30T19:49:03.762Z,97.92
2016-11-30T19:49:44.264Z,98.12
2016-11-30T19:50:24.765Z,97.83
2016-11-30T19:51:05.247Z,97.64
2016-11-30T19:51:45.749Z,97.83
2016-11-30T19:52:26.259Z,97.74
2016-11-30T19:53:06.748Z,98.02
2016-11-30T19:53:47.276Z,97.64
2016-11-30T19:54:27.776Z,97.83
2016-11-30T19:55:08.286Z,98.31
2016-11-30T19:55:48.791Z,98.02
2016-11-30T19:56:29.283Z,98.02
2016-11-30T19:57:09.782Z,97.92
2016-11-30T19:57:50.281Z,98.02
2016-11-30T19:58:30.763Z,98.21
2016-11-30T19:59:11.269Z,98.31
2016-11-30T19:59:51.767Z,98.5
2016-11-30T20:00:32.272Z,98.02
2016-11-30T20:01:12.741Z,98.02
2016-11-30T20:01:53.244Z,98.21
2016-11-30T20:02:33.755Z,98.21
2016-11-30T20:03:14.230Z,98.31
2016-11-30T20:03:54.756Z,98.4
2016-11-30T20:04:35.232Z,98.31
2016-11-30T20:05:15.706Z,98.21
2016-11-30T20:05:56.203Z,97.92
2016-11-30T20:06:36.714Z,97.83
2016-11-30T20:07:17.183Z,98.21
2016-11-30T20:07:57.669Z,98.21
2016-11-30T20:08:38.179Z,97.88
2016-11-30T20:09:18.668Z,98.12
2016-11-30T20:09:59.220Z,97.88
2016-11-30T20:10:39.714Z,97.88
2016-11-30T20:11:20.214Z,97.6
2016-11-30T20:12:00.703Z,97.55
2016-11-30T20:12:41.223Z,97.55
2016-11-30T20:13:21.722Z,97.88
2016-11-30T20:14:02.216Z,97.55
2016-11-30T20:14:42.690Z,97.5
2016-11-30T20:15:23.196Z,97.55
2016-11-30T20:16:03.697Z,97.69
2016-11-30T20:16:44.223Z,97.6
2016-11-30T20:17:24.713Z,98.07
2016-11-30T20:18:05.227Z,97.6
2016-11-30T20:18:45.702Z,97.6
2016-11-30T20:19:26.136Z,97.5
2016-11-30T20:20:06.662Z,97.5
2016-11-30T20:20:47.164Z,97.6
2016-11-30T20:21:27.671Z,97.78
2016-11-30T20:22:08.192Z,97.78
2016-11-30T20:22:48.714Z,98.17
2016-11-30T20:23:29.233Z,98.17
2016-11-30T20:24:09.725Z,97.88
2016-11-30T20:24:50.229Z,98.07
2016-11-30T20:25:30.733Z,98.45
2016-11-30T20:26:11.251Z,97.97
2016-11-30T20:26:51.720Z,98.26
2016-11-30T20:27:32.239Z,98.36
2016-11-30T20:28:12.708Z,98.26
2016-11-30T20:28:53.259Z,97.88
2016-11-30T20:29:33.757Z,98.26
2016-11-30T20:30:14.265Z,97.88
2016-11-30T20:30:54.739Z,98.07
2016-11-30T20:31:35.235Z,98.45